Wetterdaten: Woche 10.02.14 - 16.02.14 (KW7)
Datum Zeit Temperatur Luftfeuchte Luftdruck Niederschlag Windrichtung Sonnenschein Solar Wind
10.02.2014 00:00 -0,9 C 79 % 1001,7 hPa 0,0 l/m N 0,00 h 0 W/m 0,1 km/h (0 Bft)
10.02.2014 01:00 -2,0 C 83 % 1001,0 hPa 0,0 l/m N 0,00 h 0 W/m 0,4 km/h (0 Bft)
10.02.2014 02:00 -2,4 C 86 % 1000,2 hPa 0,0 l/m N 0,00 h 0 W/m 0,3 km/h (0 Bft)
10.02.2014 03:00 -2,2 C 88 % 999,4 hPa 0,0 l/m N 0,00 h 0 W/m 1,7 km/h (1 Bft)
10.02.2014 04:00 -1,3 C 82 % 998,9 hPa 0,0 l/m O-SO 0,00 h 0 W/m 5,9 km/h (2 Bft)
10.02.2014 05:00 1,1 C 67 % 998,1 hPa 0,0 l/m SO 0,00 h 0 W/m 6,3 km/h (2 Bft)
10.02.2014 06:00 1,7 C 64 % 996,7 hPa 0,0 l/m O 0,00 h 0 W/m 7,9 km/h (2 Bft)
10.02.2014 07:00 1,5 C 65 % 995,7 hPa 0,0 l/m O 0,00 h 6 W/m 2,3 km/h (1 Bft)
10.02.2014 08:00 1,2 C 69 % 994,9 hPa 0,0 l/m O-NO 0,00 h 12 W/m 2,3 km/h (1 Bft)
10.02.2014 09:00 1,3 C 71 % 994,2 hPa 0,0 l/m O-NO 0,00 h 27 W/m 3,5 km/h (1 Bft)
10.02.2014 10:00 2,0 C 71 % 993,6 hPa 0,0 l/m N 0,00 h 36 W/m 6,1 km/h (2 Bft)
10.02.2014 11:00 2,3 C 74 % 992,7 hPa 0,0 l/m N 0,00 h 58 W/m 6,9 km/h (2 Bft)
10.02.2014 12:00 3,8 C 68 % 991,4 hPa 0,0 l/m N 0,00 h 126 W/m 7,0 km/h (2 Bft)
10.02.2014 13:00 5,7 C 61 % 990,7 hPa 0,0 l/m N-NO 0,08 h 179 W/m 8,6 km/h (2 Bft)
10.02.2014 14:00 6,7 C 60 % 990,2 hPa 0,0 l/m NO 0,42 h 253 W/m 9,3 km/h (2 Bft)
10.02.2014 15:00 7,5 C 60 % 990,7 hPa 0,0 l/m NO 0,33 h 135 W/m 9,0 km/h (2 Bft)
10.02.2014 16:00 5,7 C 69 % 991,2 hPa 0,0 l/m N 0,00 h 18 W/m 8,6 km/h (2 Bft)
10.02.2014 17:00 4,5 C 75 % 992,8 hPa 0,0 l/m N-NW 0,00 h 6 W/m 6,4 km/h (2 Bft)
10.02.2014 18:00 4,1 C 77 % 993,6 hPa 0,0 l/m NW 0,00 h 0 W/m 5,2 km/h (1 Bft)
10.02.2014 19:00 3,5 C 79 % 994,6 hPa 0,0 l/m N 0,00 h 0 W/m 0,4 km/h (0 Bft)
10.02.2014 20:00 2,9 C 82 % 995,8 hPa 0,0 l/m N 0,00 h 0 W/m 0,3 km/h (0 Bft)
10.02.2014 21:00 2,5 C 85 % 997,3 hPa 0,0 l/m N 0,00 h 0 W/m 0,5 km/h (0 Bft)
10.02.2014 22:00 2,4 C 86 % 998,5 hPa 0,0 l/m W-SW 0,00 h 0 W/m 2,1 km/h (1 Bft)
10.02.2014 23:00 3,6 C 87 % 999,5 hPa 0,0 l/m W-SW 0,00 h 0 W/m 16,4 km/h (3 Bft)
11.02.2014 00:00 4,4 C 89 % 1000,2 hPa 0,0 l/m W-SW 0,00 h 0 W/m 21,7 km/h (4 Bft)
11.02.2014 01:00 4,2 C 90 % 1001,4 hPa 0,0 l/m W-SW 0,00 h 0 W/m 15,3 km/h (3 Bft)
11.02.2014 02:00 3,8 C 91 % 1002,7 hPa 0,0 l/m SW 0,00 h 0 W/m 13,2 km/h (3 Bft)
11.02.2014 03:00 3,7 C 90 % 1003,9 hPa 0,0 l/m W-SW 0,00 h 0 W/m 18,2 km/h (3 Bft)
11.02.2014 04:00 3,3 C 87 % 1004,9 hPa 0,0 l/m W 0,00 h 0 W/m 9,7 km/h (2 Bft)
11.02.2014 05:00 3,0 C 89 % 1006,0 hPa 0,0 l/m SW 0,00 h 0 W/m 12,8 km/h (3 Bft)
11.02.2014 06:00 3,1 C 90 % 1006,6 hPa 0,0 l/m W-SW 0,00 h 0 W/m 17,4 km/h (3 Bft)
11.02.2014 07:00 3,2 C 90 % 1007,2 hPa 0,0 l/m SW 0,17 h 18 W/m 16,5 km/h (3 Bft)
11.02.2014 08:00 3,3 C 90 % 1007,9 hPa 0,0 l/m SW 0,75 h 67 W/m 17,0 km/h (3 Bft)
11.02.2014 09:00 3,9 C 85 % 1008,1 hPa 0,0 l/m W-SW 0,33 h 142 W/m 19,8 km/h (4 Bft)
11.02.2014 10:00 4,5 C 77 % 1008,0 hPa 0,0 l/m W-SW 0,50 h 243 W/m 24,5 km/h (4 Bft)
11.02.2014 11:00 5,0 C 73 % 1007,9 hPa 0,0 l/m W-SW 0,83 h 405 W/m 22,3 km/h (4 Bft)
11.02.2014 12:00 6,1 C 70 % 1007,1 hPa 0,0 l/m W 1,00 h 576 W/m 20,2 km/h (4 Bft)
11.02.2014 13:00 6,4 C 68 % 1006,0 hPa 0,0 l/m W-SW 0,83 h 427 W/m 17,7 km/h (3 Bft)
11.02.2014 14:00 6,8 C 65 % 1005,5 hPa 0,0 l/m W-SW 0,83 h 364 W/m 14,4 km/h (3 Bft)
11.02.2014 15:00 6,6 C 64 % 1004,8 hPa 0,0 l/m W-SW 0,92 h 283 W/m 13,7 km/h (3 Bft)
11.02.2014 16:00 6,0 C 65 % 1004,5 hPa 0,0 l/m W-SW 1,00 h 135 W/m 9,7 km/h (2 Bft)
11.02.2014 17:00 4,2 C 72 % 1004,6 hPa 0,0 l/m W-SW 0,08 h 11 W/m 4,4 km/h (1 Bft)
11.02.2014 18:00 1,7 C 81 % 1005,2 hPa 0,0 l/m N 0,00 h 0 W/m 1,2 km/h (1 Bft)
11.02.2014 19:00 0,1 C 87 % 1005,2 hPa 0,0 l/m N 0,00 h 0 W/m 0,1 km/h (0 Bft)
11.02.2014 20:00 -0,7 C 89 % 1004,9 hPa 0,0 l/m N 0,00 h 0 W/m 0,0 km/h (0 Bft)
11.02.2014 21:00 -1,2 C 90 % 1005,4 hPa 0,0 l/m N 0,00 h 0 W/m 0,8 km/h (0 Bft)
11.02.2014 22:00 -1,5 C 91 % 1005,6 hPa 0,0 l/m N 0,00 h 0 W/m 0,0 km/h (0 Bft)
11.02.2014 23:00 -2,0 C 91 % 1006,1 hPa 0,0 l/m N 0,00 h 0 W/m 0,0 km/h (0 Bft)
12.02.2014 00:00 -2,3 C 92 % 1006,5 hPa 0,0 l/m N 0,00 h 0 W/m 0,0 km/h (0 Bft)
12.02.2014 01:00 -2,6 C 93 % 1007,1 hPa 0,0 l/m N 0,00 h 0 W/m 0,0 km/h (0 Bft)
12.02.2014 02:00 -2,8 C 93 % 1007,4 hPa 0,0 l/m N 0,00 h 0 W/m 0,3 km/h (0 Bft)
12.02.2014 03:00 -3,0 C 94 % 1007,9 hPa 0,0 l/m N 0,00 h 0 W/m 0,0 km/h (0 Bft)
12.02.2014 04:00 -3,3 C 94 % 1008,7 hPa 0,0 l/m N 0,00 h 0 W/m 0,1 km/h (0 Bft)
12.02.2014 05:00 -3,1 C 95 % 1009,9 hPa 0,0 l/m SW 0,00 h 0 W/m 3,3 km/h (1 Bft)
12.02.2014 06:00 -1,5 C 96 % 1010,9 hPa 0,0 l/m SW 0,00 h 0 W/m 6,4 km/h (2 Bft)
12.02.2014 07:00 -0,4 C 97 % 1011,6 hPa 0,0 l/m SW 0,00 h 0 W/m 5,7 km/h (1 Bft)
12.02.2014 08:00 0,1 C 97 % 1012,1 hPa 0,0 l/m SW 0,00 h 13 W/m 5,9 km/h (2 Bft)
12.02.2014 09:00 0,6 C 97 % 1012,7 hPa 0,2 l/m SW 0,33 h 112 W/m 8,6 km/h (2 Bft)
12.02.2014 10:00 1,9 C 96 % 1013,0 hPa 0,0 l/m S-SW 0,08 h 145 W/m 12,6 km/h (3 Bft)
12.02.2014 11:00 3,6 C 88 % 1012,7 hPa 0,0 l/m W-SW 0,42 h 260 W/m 16,0 km/h (3 Bft)
12.02.2014 12:00 4,7 C 81 % 1012,9 hPa 0,0 l/m W-SW 0,42 h 378 W/m 20,2 km/h (4 Bft)
12.02.2014 13:00 4,9 C 78 % 1012,6 hPa 0,0 l/m W-SW 0,58 h 345 W/m 17,0 km/h (3 Bft)
12.02.2014 14:00 6,3 C 70 % 1011,8 hPa 0,0 l/m SW 1,00 h 456 W/m 17,3 km/h (3 Bft)
12.02.2014 15:00 6,2 C 69 % 1011,1 hPa 0,0 l/m SW 0,92 h 279 W/m 18,1 km/h (3 Bft)
12.02.2014 16:00 5,7 C 70 % 1010,6 hPa 0,0 l/m SW 0,92 h 132 W/m 14,6 km/h (3 Bft)
12.02.2014 17:00 4,0 C 76 % 1009,9 hPa 0,0 l/m SW 0,08 h 11 W/m 2,1 km/h (1 Bft)
12.02.2014 18:00 1,3 C 85 % 1009,3 hPa 0,0 l/m N 0,00 h 0 W/m 0,0 km/h (0 Bft)
12.02.2014 19:00 -0,1 C 90 % 1008,6 hPa 0,0 l/m N 0,00 h 0 W/m 0,0 km/h (0 Bft)
12.02.2014 20:00 -0,7 C 92 % 1007,9 hPa 0,0 l/m N 0,00 h 0 W/m 0,4 km/h (0 Bft)
12.02.2014 21:00 -1,1 C 92 % 1007,8 hPa 0,0 l/m N 0,00 h 0 W/m 0,4 km/h (0 Bft)
12.02.2014 22:00 -1,5 C 92 % 1007,3 hPa 0,0 l/m N 0,00 h 0 W/m 0,0 km/h (0 Bft)
12.02.2014 23:00 -1,6 C 93 % 1006,9 hPa 0,0 l/m N 0,00 h 0 W/m 0,7 km/h (0 Bft)
13.02.2014 00:00 -0,8 C 93 % 1006,7 hPa 0,0 l/m SW 0,00 h 0 W/m 7,1 km/h (2 Bft)
13.02.2014 01:00 1,2 C 86 % 1006,4 hPa 0,0 l/m SW 0,00 h 0 W/m 10,5 km/h (2 Bft)
13.02.2014 02:00 1,7 C 84 % 1006,6 hPa 0,0 l/m SW 0,00 h 0 W/m 9,0 km/h (2 Bft)
13.02.2014 03:00 3,4 C 86 % 1007,6 hPa 1,0 l/m W-SW 0,00 h 0 W/m 29,8 km/h (5 Bft)
13.02.2014 04:00 3,0 C 93 % 1007,8 hPa 0,0 l/m SW 0,00 h 0 W/m 20,9 km/h (4 Bft)
13.02.2014 05:00 2,8 C 94 % 1007,5 hPa 0,0 l/m SW 0,00 h 0 W/m 17,7 km/h (3 Bft)
13.02.2014 06:00 2,5 C 95 % 1005,8 hPa 0,0 l/m SW 0,00 h 0 W/m 17,7 km/h (3 Bft)
13.02.2014 07:00 2,9 C 92 % 1004,9 hPa 0,0 l/m W-SW 0,00 h 9 W/m 18,4 km/h (3 Bft)
13.02.2014 08:00 3,2 C 88 % 1004,1 hPa 0,0 l/m SW 0,08 h 43 W/m 8,6 km/h (2 Bft)
13.02.2014 09:00 3,2 C 91 % 1001,9 hPa 0,0 l/m N 0,25 h 134 W/m 2,9 km/h (1 Bft)
13.02.2014 10:00 4,6 C 87 % 999,9 hPa 0,0 l/m S-SW 0,00 h 120 W/m 2,3 km/h (1 Bft)
13.02.2014 11:00 5,7 C 82 % 998,6 hPa 0,0 l/m S-SW 0,00 h 136 W/m 2,8 km/h (1 Bft)
13.02.2014 12:00 6,1 C 78 % 998,0 hPa 0,0 l/m W 0,00 h 36 W/m 5,5 km/h (1 Bft)
13.02.2014 13:00 5,6 C 84 % 998,2 hPa 0,4 l/m W 0,00 h 60 W/m 16,9 km/h (3 Bft)
13.02.2014 14:00 5,7 C 88 % 996,8 hPa 0,0 l/m SW 0,08 h 91 W/m 16,9 km/h (3 Bft)
13.02.2014 15:00 6,4 C 84 % 996,5 hPa 0,0 l/m W-SW 0,00 h 71 W/m 27,8 km/h (4 Bft)
13.02.2014 16:00 6,3 C 82 % 998,0 hPa 2,4 l/m W 0,00 h 12 W/m 34,3 km/h (5 Bft)
13.02.2014 17:00 3,9 C 92 % 998,7 hPa 0,6 l/m W-SW 0,00 h 0 W/m 27,6 km/h (4 Bft)
13.02.2014 18:00 3,0 C 94 % 999,5 hPa 0,0 l/m SW 0,00 h 0 W/m 18,1 km/h (3 Bft)
13.02.2014 19:00 2,9 C 95 % 1000,4 hPa 0,2 l/m S-SW 0,00 h 0 W/m 22,3 km/h (4 Bft)
13.02.2014 20:00 3,2 C 94 % 1002,0 hPa 0,0 l/m W-SW 0,00 h 0 W/m 28,4 km/h (4 Bft)
13.02.2014 21:00 3,3 C 92 % 1003,2 hPa 0,0 l/m W-SW 0,00 h 0 W/m 29,0 km/h (5 Bft)
13.02.2014 22:00 3,4 C 91 % 1004,6 hPa 0,0 l/m W 0,00 h 0 W/m 21,4 km/h (4 Bft)
13.02.2014 23:00 3,2 C 92 % 1005,9 hPa 0,0 l/m W-SW 0,00 h 0 W/m 17,8 km/h (3 Bft)
14.02.2014 00:00 2,7 C 92 % 1007,2 hPa 0,0 l/m SW 0,00 h 0 W/m 20,8 km/h (4 Bft)
14.02.2014 01:00 1,9 C 92 % 1008,6 hPa 0,0 l/m W 0,00 h 0 W/m 16,5 km/h (3 Bft)
14.02.2014 02:00 1,0 C 94 % 1009,4 hPa 0,0 l/m W-SW 0,00 h 0 W/m 11,8 km/h (2 Bft)
14.02.2014 03:00 0,6 C 95 % 1009,9 hPa 0,0 l/m SW 0,00 h 0 W/m 11,8 km/h (2 Bft)
14.02.2014 04:00 0,4 C 95 % 1010,3 hPa 0,0 l/m SW 0,00 h 0 W/m 12,9 km/h (3 Bft)
14.02.2014 05:00 0,4 C 95 % 1010,6 hPa 0,0 l/m SW 0,00 h 0 W/m 13,8 km/h (3 Bft)
14.02.2014 06:00 0,5 C 94 % 1010,9 hPa 0,0 l/m SW 0,00 h 0 W/m 11,0 km/h (2 Bft)
14.02.2014 07:00 -0,0 C 92 % 1011,3 hPa 0,0 l/m N 0,00 h 12 W/m 1,2 km/h (1 Bft)
14.02.2014 08:00 -0,6 C 93 % 1011,9 hPa 0,0 l/m N 0,17 h 48 W/m 1,1 km/h (0 Bft)
14.02.2014 09:00 0,9 C 94 % 1012,4 hPa 0,0 l/m SW 0,67 h 194 W/m 7,9 km/h (2 Bft)
14.02.2014 10:00 3,3 C 85 % 1012,2 hPa 0,2 l/m SW 1,00 h 345 W/m 12,6 km/h (3 Bft)
14.02.2014 11:00 4,9 C 78 % 1011,8 hPa 0,6 l/m SW 0,92 h 312 W/m 14,9 km/h (3 Bft)
14.02.2014 12:00 5,5 C 75 % 1011,4 hPa 0,2 l/m SW 0,67 h 307 W/m 16,2 km/h (3 Bft)
14.02.2014 13:00 6,7 C 67 % 1010,4 hPa 0,0 l/m S 0,75 h 339 W/m 14,5 km/h (3 Bft)
14.02.2014 14:00 7,0 C 61 % 1009,3 hPa 0,0 l/m S 0,50 h 211 W/m 12,2 km/h (2 Bft)
14.02.2014 15:00 6,7 C 61 % 1008,8 hPa 0,0 l/m S-SW 0,00 h 56 W/m 7,8 km/h (2 Bft)
14.02.2014 16:00 6,2 C 66 % 1007,9 hPa 0,0 l/m S-SW 0,00 h 26 W/m 3,1 km/h (1 Bft)
14.02.2014 17:00 5,9 C 69 % 1007,3 hPa 0,0 l/m N 0,00 h 9 W/m 2,4 km/h (1 Bft)
14.02.2014 18:00 5,6 C 71 % 1007,2 hPa 0,0 l/m N 0,00 h 0 W/m 2,4 km/h (1 Bft)
14.02.2014 19:00 4,9 C 76 % 1007,0 hPa 0,2 l/m N 0,00 h 0 W/m 0,4 km/h (0 Bft)
14.02.2014 20:00 4,5 C 77 % 1006,6 hPa 0,0 l/m N 0,00 h 0 W/m 0,4 km/h (0 Bft)
14.02.2014 21:00 3,4 C 80 % 1006,0 hPa 0,0 l/m N 0,00 h 0 W/m 0,3 km/h (0 Bft)
14.02.2014 22:00 2,8 C 85 % 1005,6 hPa 0,0 l/m N 0,00 h 0 W/m 0,8 km/h (0 Bft)
14.02.2014 23:00 2,8 C 86 % 1005,1 hPa 0,0 l/m N 0,00 h 0 W/m 2,0 km/h (1 Bft)
15.02.2014 00:00 2,4 C 86 % 1004,5 hPa 0,0 l/m N 0,00 h 0 W/m 0,7 km/h (0 Bft)
15.02.2014 01:00 1,7 C 87 % 1003,7 hPa 0,0 l/m N 0,00 h 0 W/m 0,4 km/h (0 Bft)
15.02.2014 02:00 1,6 C 88 % 1003,3 hPa 0,0 l/m W 0,00 h 0 W/m 5,3 km/h (1 Bft)
15.02.2014 03:00 1,9 C 87 % 1003,3 hPa 0,0 l/m N-NW 0,00 h 0 W/m 6,3 km/h (2 Bft)
15.02.2014 04:00 2,5 C 86 % 1003,9 hPa 0,0 l/m W 0,00 h 0 W/m 4,0 km/h (1 Bft)
15.02.2014 05:00 2,5 C 87 % 1004,3 hPa 0,0 l/m W-SW 0,00 h 0 W/m 3,6 km/h (1 Bft)
15.02.2014 06:00 2,9 C 86 % 1004,5 hPa 0,0 l/m S 0,00 h 0 W/m 8,9 km/h (2 Bft)
15.02.2014 07:00 3,6 C 84 % 1004,4 hPa 0,0 l/m S-SO 0,00 h 8 W/m 4,3 km/h (1 Bft)
15.02.2014 08:00 3,7 C 84 % 1004,3 hPa 0,0 l/m N 0,00 h 34 W/m 0,9 km/h (0 Bft)
15.02.2014 09:00 5,3 C 82 % 1004,3 hPa 0,0 l/m S-SO 0,25 h 141 W/m 2,7 km/h (1 Bft)
15.02.2014 10:00 9,2 C 68 % 1004,2 hPa 0,0 l/m S-SO 0,83 h 326 W/m 11,4 km/h (2 Bft)
15.02.2014 11:00 12,0 C 59 % 1004,0 hPa 0,0 l/m W-SW 0,33 h 251 W/m 12,8 km/h (3 Bft)
15.02.2014 12:00 13,6 C 51 % 1003,7 hPa 0,0 l/m SW 0,00 h 223 W/m 13,7 km/h (3 Bft)
15.02.2014 13:00 13,1 C 63 % 1003,3 hPa 0,0 l/m N-NW 1,00 h 351 W/m 10,8 km/h (2 Bft)
15.02.2014 14:00 13,8 C 57 % 1003,0 hPa 0,0 l/m NW 0,92 h 317 W/m 9,9 km/h (2 Bft)
15.02.2014 15:00 14,0 C 51 % 1002,9 hPa 0,0 l/m W-NW 0,08 h 127 W/m 9,5 km/h (2 Bft)
15.02.2014 16:00 12,4 C 56 % 1003,2 hPa 0,0 l/m N 0,00 h 53 W/m 9,1 km/h (2 Bft)
15.02.2014 17:00 11,2 C 62 % 1003,8 hPa 0,0 l/m W-NW 0,00 h 17 W/m 12,5 km/h (3 Bft)
15.02.2014 18:00 9,3 C 78 % 1004,9 hPa 0,0 l/m N-NO 0,00 h 0 W/m 12,0 km/h (2 Bft)
15.02.2014 19:00 7,6 C 87 % 1006,7 hPa 0,0 l/m N-NW 0,00 h 0 W/m 4,8 km/h (1 Bft)
15.02.2014 20:00 7,4 C 86 % 1008,0 hPa 0,0 l/m W-NW 0,00 h 0 W/m 6,1 km/h (2 Bft)
15.02.2014 21:00 7,0 C 82 % 1009,1 hPa 0,0 l/m W-NW 0,00 h 0 W/m 15,0 km/h (3 Bft)
15.02.2014 22:00 5,4 C 87 % 1010,2 hPa 0,6 l/m W-NW 0,00 h 0 W/m 13,4 km/h (3 Bft)
15.02.2014 23:00 3,9 C 91 % 1011,1 hPa 2,0 l/m W 0,00 h 0 W/m 13,7 km/h (3 Bft)
16.02.2014 00:00 3,0 C 94 % 1011,2 hPa 0,6 l/m W-SW 0,00 h 0 W/m 13,3 km/h (3 Bft)
16.02.2014 01:00 2,6 C 95 % 1011,7 hPa 1,2 l/m W-SW 0,00 h 0 W/m 17,8 km/h (3 Bft)
16.02.2014 02:00 2,4 C 96 % 1012,0 hPa 0,4 l/m SW 0,00 h 0 W/m 14,6 km/h (3 Bft)
16.02.2014 03:00 2,2 C 96 % 1012,2 hPa 1,2 l/m SW 0,00 h 0 W/m 15,6 km/h (3 Bft)
16.02.2014 04:00 2,3 C 97 % 1012,3 hPa 0,2 l/m SW 0,00 h 0 W/m 21,4 km/h (4 Bft)
16.02.2014 05:00 2,5 C 97 % 1012,3 hPa 0,0 l/m SW 0,00 h 0 W/m 18,1 km/h (3 Bft)
16.02.2014 06:00 2,7 C 97 % 1012,4 hPa 0,0 l/m SW 0,00 h 0 W/m 17,6 km/h (3 Bft)
16.02.2014 07:00 2,8 C 97 % 1012,7 hPa 0,0 l/m W-SW 0,00 h 0 W/m 19,0 km/h (3 Bft)
16.02.2014 08:00 3,1 C 97 % 1013,4 hPa 0,0 l/m SW 0,00 h 11 W/m 14,0 km/h (3 Bft)
16.02.2014 09:00 3,4 C 97 % 1013,6 hPa 0,0 l/m SW 0,00 h 65 W/m 17,2 km/h (3 Bft)
16.02.2014 10:00 4,1 C 93 % 1013,7 hPa 0,0 l/m SW 0,00 h 83 W/m 22,0 km/h (4 Bft)
16.02.2014 11:00 4,4 C 92 % 1013,9 hPa 0,0 l/m W-SW 0,00 h 105 W/m 21,6 km/h (4 Bft)
16.02.2014 12:00 4,7 C 89 % 1013,7 hPa 0,0 l/m W-SW 0,00 h 117 W/m 20,1 km/h (4 Bft)
16.02.2014 13:00 5,1 C 87 % 1013,8 hPa 0,0 l/m W-SW 0,00 h 105 W/m 20,9 km/h (4 Bft)
16.02.2014 14:00 5,2 C 86 % 1013,8 hPa 0,0 l/m W-SW 0,00 h 60 W/m 17,0 km/h (3 Bft)
16.02.2014 15:00 5,0 C 88 % 1013,8 hPa 0,0 l/m SW 0,00 h 41 W/m 14,9 km/h (3 Bft)
16.02.2014 16:00 4,8 C 89 % 1013,9 hPa 0,0 l/m SW 0,00 h 23 W/m 16,1 km/h (3 Bft)
16.02.2014 17:00 4,7 C 89 % 1014,1 hPa 0,0 l/m S-SW 0,00 h 8 W/m 12,2 km/h (2 Bft)
16.02.2014 18:00 4,1 C 89 % 1014,1 hPa 0,0 l/m SW 0,00 h 0 W/m 11,1 km/h (2 Bft)
16.02.2014 19:00 3,6 C 90 % 1014,2 hPa 0,0 l/m S-SW 0,00 h 0 W/m 7,2 km/h (2 Bft)
16.02.2014 20:00 3,2 C 91 % 1014,1 hPa 0,0 l/m S-SW 0,00 h 0 W/m 5,2 km/h (1 Bft)
16.02.2014 21:00 2,8 C 91 % 1014,1 hPa 0,0 l/m S-SW 0,00 h 0 W/m 2,1 km/h (1 Bft)
16.02.2014 22:00 2,7 C 91 % 1014,2 hPa 0,0 l/m N 0,00 h 0 W/m 0,9 km/h (0 Bft)
16.02.2014 23:00 2,2 C 91 % 1014,1 hPa 0,0 l/m N 0,00 h 0 W/m 0,0 km/h (0 Bft)
Min-Datum _ 12.02.14 15.02.14 10.02.14 - - - - 10.02.14
_ Min-Zeit 04:55 15:00 14:10 - - - - 00:00
Minimum _ -3,5 C 48 % 990,1 hPa - - - - 0,0 km/h (0 Bft)
Max-Datum _ 15.02.14 13.02.14 16.02.14 13.02.14 - 10.02.14 12.02.14 13.02.14
_ Max-Zeit 15:00 06:35 17:55 16:30 - 13:55 12:40 16:30
Maximum _ 14,6 C 100 % 1014,3 hPa 2,4 l/m - 0,08 h 661 W/m 51,5 km/h
W (7 Bft)
Durchschnitt _ 3,4 C 84 % 1005,8 hPa #12,2 l/m SW #21:20 h 144 W/m 10,1 km/h (2 Bft)